Time;durP1;ratioP1;P1;durP2;ratioP2;P2;SDS_P1;SDS_P2;PMS_P1;PMS_P2;Temp;Humidity;BMP_temperature;BMP_pressure;BME280_temperature;BME280_humidity;BME280_pressure;Samples;Min_cycle;Max_cycle;Signal;HPM_P1;HPM_P2
2022/06/12 00:00:13;;;;;;;2.42;1.10;;;13.60;99.90;;;;;;5101500;28;20048;-70
2022/06/12 00:02:39;;;;;;;1.58;0.88;;;13.60;99.90;;;;;;5089179;28;20412;-70
2022/06/12 00:05:05;;;;;;;1.95;1.02;;;13.50;99.90;;;;;;5100580;27;20036;-70
2022/06/12 00:07:31;;;;;;;1.77;1.10;;;13.50;99.90;;;;;;5097325;28;20032;-70
2022/06/12 00:09:56;;;;;;;3.55;1.20;;;13.50;99.90;;;;;;5084389;28;20040;-70
2022/06/12 00:12:22;;;;;;;5.28;1.40;;;13.50;99.90;;;;;;5099144;27;20035;-70
2022/06/12 00:14:48;;;;;;;3.63;1.30;;;13.50;99.90;;;;;;5102856;27;20036;-70
2022/06/12 00:17:14;;;;;;;2.05;1.08;;;13.40;99.90;;;;;;5120161;27;20166;-70
2022/06/12 00:19:40;;;;;;;2.40;0.90;;;13.40;99.90;;;;;;5094803;27;20405;-70
2022/06/12 00:22:06;;;;;;;3.88;1.17;;;13.40;99.90;;;;;;5100136;27;20036;-70
2022/06/12 00:24:32;;;;;;;1.17;0.80;;;13.40;99.90;;;;;;5115287;27;20523;-70
2022/06/12 00:26:58;;;;;;;3.80;1.00;;;13.40;99.90;;;;;;5082463;27;20108;-70
2022/06/12 00:29:29;;;;;;;3.47;1.33;;;13.40;99.90;;;;;;5098625;27;20148;-70
2022/06/12 00:31:58;;;;;;;4.68;0.88;;;13.40;99.90;;;;;;5107694;27;20039;-71
2022/06/12 00:34:29;;;;;;;3.53;1.00;;;13.40;99.90;;;;;;5079064;27;20066;-74
2022/06/12 00:36:56;;;;;;;3.92;0.75;;;13.40;99.90;;;;;;5104583;27;20039;-69
2022/06/12 00:39:23;;;;;;;1.17;0.73;;;13.40;99.90;;;;;;5097378;27;20091;-70
2022/06/12 00:41:52;;;;;;;1.23;0.73;;;13.40;99.90;;;;;;5090214;28;20481;-70
2022/06/12 00:44:23;;;;;;;3.15;1.17;;;13.30;99.90;;;;;;5096628;27;20059;-70
2022/06/12 00:46:57;;;;;;;1.85;0.90;;;13.30;99.90;;;;;;5097853;28;20040;-70
2022/06/12 00:49:34;;;;;;;6.95;0.98;;;13.40;99.90;;;;;;5101271;27;20039;-70
2022/06/12 00:52:09;;;;;;;1.40;0.50;;;13.30;99.90;;;;;;5110385;27;20051;-70
2022/06/12 00:54:37;;;;;;;2.25;0.70;;;13.30;99.90;;;;;;5116496;27;20035;-70
2022/06/12 00:57:03;;;;;;;3.78;0.90;;;13.30;99.90;;;;;;5099729;27;20035;-70
2022/06/12 00:59:38;;;;;;;5.20;1.38;;;13.20;99.90;;;;;;5117102;27;20457;-70
2022/06/12 01:02:07;;;;;;;2.17;0.65;;;13.20;99.90;;;;;;5100929;27;20065;-69
2022/06/12 01:07:21;;;;;;;1.92;0.80;;;13.20;99.90;;;;;;5114257;27;20043;-71
2022/06/12 01:09:50;;;;;;;2.85;1.23;;;13.20;99.90;;;;;;5098391;28;20067;-70
2022/06/12 01:12:21;;;;;;;4.70;0.80;;;13.30;99.90;;;;;;5095572;27;20040;-70
2022/06/12 01:14:51;;;;;;;2.83;0.90;;;13.20;99.90;;;;;;5100371;27;20028;-70
2022/06/12 01:17:19;;;;;;;1.85;0.73;;;13.20;99.90;;;;;;5098386;28;20047;-70
2022/06/12 01:19:53;;;;;;;1.35;0.63;;;13.20;99.90;;;;;;5103153;27;20140;-70
2022/06/12 01:22:43;;;;;;;1.50;0.80;;;13.20;99.90;;;;;;5101537;27;20072;-70
2022/06/12 01:25:22;;;;;;;1.77;0.77;;;13.20;99.90;;;;;;5116962;27;20065;-70
2022/06/12 01:28:40;;;;;;;2.05;1.05;;;13.20;99.90;;;;;;5109371;27;20047;-70
2022/06/12 01:31:45;;;;;;;2.70;0.68;;;13.20;99.90;;;;;;5076981;28;20047;-70
2022/06/12 01:34:19;;;;;;;1.98;1.05;;;13.20;99.90;;;;;;5060391;28;20077;-70
2022/06/12 01:37:17;;;;;;;3.13;1.23;;;13.10;99.90;;;;;;5058603;28;20579;-70
2022/06/12 01:39:45;;;;;;;4.47;1.00;;;13.10;99.90;;;;;;5091766;28;20036;-70
2022/06/12 01:42:32;;;;;;;1.83;0.95;;;13.10;99.90;;;;;;5094946;27;20036;-70
2022/06/12 01:45:32;;;;;;;2.10;0.90;;;13.10;99.90;;;;;;5102714;27;20100;-70
2022/06/12 01:48:13;;;;;;;2.67;0.80;;;13.10;99.90;;;;;;5115057;27;20023;-70
2022/06/12 01:50:47;;;;;;;2.15;0.80;;;13.10;99.90;;;;;;5099983;28;20036;-70
2022/06/12 01:53:46;;;;;;;5.30;1.10;;;13.10;99.90;;;;;;5115044;27;20050;-70
2022/06/12 01:56:48;;;;;;;2.53;0.70;;;13.10;99.90;;;;;;5110696;27;20123;-70
2022/06/12 01:59:26;;;;;;;1.80;0.90;;;13.10;99.90;;;;;;5094099;27;20048;-70
2022/06/12 02:02:01;;;;;;;1.20;0.70;;;13.10;99.90;;;;;;5095475;27;20093;-70
2022/06/12 02:04:45;;;;;;;1.30;0.52;;;13.10;99.90;;;;;;5096975;27;20496;-70
2022/06/12 02:07:21;;;;;;;2.90;0.90;;;13.00;99.90;;;;;;5101728;27;20089;-70
2022/06/12 02:09:53;;;;;;;;;;;13.00;99.90;;;;;;5096426;27;20036;-70
2022/06/12 02:15:22;;;;;;;2.38;0.80;;;13.00;99.90;;;;;;5096488;27;20084;-70
2022/06/12 02:17:54;;;;;;;2.08;0.73;;;12.90;99.90;;;;;;5097571;27;20127;-70
2022/06/12 02:20:24;;;;;;;1.60;0.70;;;12.90;99.90;;;;;;5095789;27;20040;-70
2022/06/12 02:22:50;;;;;;;1.77;0.77;;;12.90;99.90;;;;;;5097517;27;20057;-70
2022/06/12 02:25:40;;;;;;;2.00;0.70;;;12.90;99.90;;;;;;5110873;27;20028;-70
2022/06/12 02:28:14;;;;;;;2.03;0.80;;;12.90;99.90;;;;;;5086150;28;20483;-70
2022/06/12 02:30:43;;;;;;;2.37;0.80;;;12.90;99.90;;;;;;5099332;27;20035;-70
2022/06/12 02:33:28;;;;;;;1.13;0.60;;;12.90;99.90;;;;;;5100968;27;20513;-71
2022/06/12 02:36:00;;;;;;;3.15;1.00;;;12.90;99.90;;;;;;5117767;27;20273;-71
2022/06/12 02:38:57;;;;;;;0.93;0.70;;;12.80;99.90;;;;;;5081157;28;20523;-71
2022/06/12 02:41:26;;;;;;;3.20;1.00;;;12.90;99.90;;;;;;5084669;27;20082;-70
2022/06/12 02:43:56;;;;;;;4.05;0.73;;;12.80;99.90;;;;;;5092214;28;20498;-70
2022/06/12 02:46:30;;;;;;;2.35;0.80;;;12.80;99.90;;;;;;5115259;27;20074;-70
2022/06/12 02:48:56;;;;;;;1.58;0.95;;;12.80;99.90;;;;;;5095598;27;20122;-71
2022/06/12 02:51:31;;;;;;;5.10;0.90;;;12.80;99.90;;;;;;5100349;28;20123;-70
2022/06/12 02:54:19;;;;;;;1.35;0.57;;;12.80;99.90;;;;;;5109427;27;20041;-70
2022/06/12 02:56:58;;;;;;;3.20;0.95;;;12.80;99.90;;;;;;5098636;28;20075;-71
2022/06/12 03:00:00;;;;;;;4.85;1.00;;;12.80;99.90;;;;;;5081026;28;20046;-71
2022/06/12 03:02:25;;;;;;;3.58;0.70;;;12.70;99.90;;;;;;5114458;27;20565;-71
2022/06/12 03:04:57;;;;;;;1.13;0.50;;;12.70;99.90;;;;;;5100834;28;20036;-70
2022/06/12 03:07:23;;;;;;;2.33;0.95;;;12.80;99.90;;;;;;5077370;28;20036;-71
2022/06/12 03:09:48;;;;;;;1.58;0.85;;;12.70;99.90;;;;;;5079028;28;20447;-71
2022/06/12 03:12:14;;;;;;;1.38;0.70;;;12.70;99.90;;;;;;5076412;28;20035;-70
2022/06/12 03:14:40;;;;;;;2.15;1.02;;;12.70;99.90;;;;;;5094457;28;20043;-70
2022/06/12 03:17:07;;;;;;;0.98;0.65;;;12.70;99.90;;;;;;5098098;28;20052;-70
2022/06/12 03:19:42;;;;;;;1.13;0.73;;;12.70;99.90;;;;;;5081084;28;20047;-70
2022/06/12 03:22:29;;;;;;;4.60;1.27;;;12.70;99.90;;;;;;5096217;28;20036;-70
2022/06/12 03:25:20;;;;;;;1.95;1.05;;;12.70;99.90;;;;;;5110769;27;20550;-71
2022/06/12 03:28:04;;;;;;;3.65;0.80;;;12.70;99.90;;;;;;5102688;28;20043;-70
2022/06/12 03:30:35;;;;;;;1.63;0.75;;;12.70;99.90;;;;;;5094933;28;20814;-70
2022/06/12 03:33:38;;;;;;;2.53;1.00;;;12.70;99.90;;;;;;5098845;28;20039;-70
2022/06/12 03:36:21;;;;;;;2.40;1.00;;;12.60;99.90;;;;;;5100290;28;20051;-70
2022/06/12 03:39:18;;;;;;;1.48;0.80;;;12.60;99.90;;;;;;5098247;28;20043;-70
2022/06/12 03:41:59;;;;;;;1.42;0.60;;;12.70;99.90;;;;;;5101800;27;20101;-70
2022/06/12 03:44:37;;;;;;;4.93;1.10;;;12.60;99.90;;;;;;5103058;27;20067;-70
2022/06/12 03:47:12;;;;;;;3.40;1.20;;;12.70;99.90;;;;;;5095311;28;20036;-70
2022/06/12 03:49:49;;;;;;;2.78;1.05;;;12.70;99.90;;;;;;5080807;28;20059;-70
2022/06/12 03:52:25;;;;;;;2.70;1.02;;;12.70;99.90;;;;;;5084971;28;20036;-70
2022/06/12 03:54:59;;;;;;;1.88;0.75;;;12.70;99.90;;;;;;5102433;27;20039;-70
2022/06/12 03:57:52;;;;;;;3.35;1.10;;;12.60;99.90;;;;;;5100341;27;20131;-71
2022/06/12 04:00:21;;;;;;;2.42;0.93;;;12.60;99.90;;;;;;5100012;28;20089;-70
2022/06/12 04:03:00;;;;;;;0.85;0.52;;;12.60;99.90;;;;;;5082183;28;20040;-70
2022/06/12 04:05:36;;;;;;;2.58;1.02;;;12.60;99.90;;;;;;5116562;27;20043;-70
2022/06/12 04:08:05;;;;;;;1.13;0.77;;;12.60;99.90;;;;;;5083954;27;20036;-70
2022/06/12 04:10:37;;;;;;;1.05;0.68;;;12.60;99.90;;;;;;5099378;27;20056;-70
2022/06/12 04:13:09;;;;;;;4.38;0.73;;;12.60;99.90;;;;;;5114798;27;20051;-70
2022/06/12 04:15:42;;;;;;;3.42;1.08;;;12.60;99.90;;;;;;5102814;27;20055;-70
2022/06/12 04:18:08;;;;;;;1.98;0.93;;;12.60;99.90;;;;;;5115227;27;20074;-70
2022/06/12 04:20:57;;;;;;;1.15;0.50;;;12.60;99.90;;;;;;5104426;27;20100;-70
2022/06/12 04:23:45;;;;;;;2.20;1.08;;;12.60;99.90;;;;;;5082021;28;20055;-70
2022/06/12 04:26:31;;;;;;;3.17;0.80;;;12.60;99.90;;;;;;5099811;28;20503;-70
2022/06/12 04:29:04;;;;;;;4.32;0.95;;;12.70;99.90;;;;;;5100198;27;20472;-70
2022/06/12 04:31:33;;;;;;;2.58;1.10;;;12.60;99.90;;;;;;5096799;27;20063;-70
2022/06/12 04:34:11;;;;;;;1.83;1.00;;;12.70;99.90;;;;;;5101552;28;20445;-70
2022/06/12 04:36:37;;;;;;;1.73;0.98;;;12.80;99.90;;;;;;5102060;27;20042;-70
2022/06/12 04:39:03;;;;;;;2.58;1.05;;;12.80;99.90;;;;;;5093338;28;20031;-70
2022/06/12 04:41:32;;;;;;;2.38;0.68;;;12.80;99.90;;;;;;5097409;27;20050;-70
2022/06/12 04:43:57;;;;;;;2.47;0.75;;;12.90;99.90;;;;;;5099495;27;20385;-70
2022/06/12 04:46:24;;;;;;;1.90;0.70;;;12.90;99.90;;;;;;5102566;28;20048;-70
2022/06/12 04:48:53;;;;;;;2.45;0.93;;;13.00;99.90;;;;;;5115745;27;20028;-70
2022/06/12 04:51:19;;;;;;;1.70;0.88;;;13.00;99.90;;;;;;5095741;27;20032;-70
2022/06/12 04:53:46;;;;;;;1.48;1.10;;;13.00;99.90;;;;;;5097901;28;20044;-70
2022/06/12 04:56:14;;;;;;;3.33;0.73;;;13.00;99.90;;;;;;5114702;27;20020;-70
2022/06/12 04:58:41;;;;;;;2.40;0.90;;;13.00;99.90;;;;;;5100939;27;20040;-70
2022/06/12 05:01:07;;;;;;;5.45;1.00;;;13.10;99.90;;;;;;5095980;27;20039;-70
2022/06/12 05:03:33;;;;;;;1.23;0.63;;;13.10;99.90;;;;;;5096468;27;20531;-70
2022/06/12 05:05:59;;;;;;;3.42;0.70;;;13.10;99.90;;;;;;5093934;27;20035;-70
2022/06/12 05:08:25;;;;;;;2.30;1.05;;;13.20;99.90;;;;;;5084248;28;20027;-70
2022/06/12 05:10:50;;;;;;;1.60;0.77;;;13.20;99.90;;;;;;5096674;27;20035;-70
2022/06/12 05:13:16;;;;;;;1.08;0.65;;;13.30;99.90;;;;;;5100250;27;20405;-70
2022/06/12 05:15:45;;;;;;;1.23;0.60;;;13.30;99.90;;;;;;5099140;27;20212;-70
2022/06/12 05:18:13;;;;;;;5.18;0.75;;;13.30;99.90;;;;;;5094685;27;20052;-70
2022/06/12 05:20:39;;;;;;;9.55;1.00;;;13.40;99.90;;;;;;5100941;27;20058;-70
2022/06/12 05:23:05;;;;;;;1.70;0.82;;;13.40;99.90;;;;;;5081616;28;20040;-70
2022/06/12 05:25:31;;;;;;;3.78;0.93;;;13.40;99.90;;;;;;5095510;27;20039;-70
2022/06/12 05:27:58;;;;;;;1.75;0.77;;;13.40;99.90;;;;;;5100580;27;20036;-70
2022/06/12 05:30:27;;;;;;;2.15;0.70;;;13.50;99.90;;;;;;5098810;27;20520;-70
2022/06/12 05:32:55;;;;;;;4.38;1.08;;;13.50;99.90;;;;;;5083117;28;20062;-70
2022/06/12 05:35:21;;;;;;;2.45;0.70;;;13.60;99.90;;;;;;5083879;27;20042;-70
2022/06/12 05:37:48;;;;;;;1.00;0.60;;;13.60;99.90;;;;;;5081410;27;20043;-70
2022/06/12 05:40:19;;;;;;;0.93;0.50;;;13.70;99.90;;;;;;5099967;28;20675;-70
2022/06/12 05:42:45;;;;;;;2.15;0.95;;;13.70;99.90;;;;;;5082287;28;20621;-70
2022/06/12 05:45:13;;;;;;;3.08;1.00;;;13.80;99.90;;;;;;5101171;27;20023;-70
2022/06/12 05:47:50;;;;;;;4.22;0.75;;;13.80;99.90;;;;;;5085662;28;20474;-70
2022/06/12 05:50:18;;;;;;;2.47;0.85;;;13.90;99.90;;;;;;5095881;27;20401;-70
2022/06/12 05:52:44;;;;;;;2.40;0.80;;;14.00;99.90;;;;;;5087893;27;20493;-70
2022/06/12 05:55:10;;;;;;;5.60;0.85;;;14.10;99.90;;;;;;5102456;28;20131;-71
2022/06/12 05:57:36;;;;;;;2.15;0.90;;;14.10;99.90;;;;;;5082417;28;20075;-70
2022/06/12 06:00:04;;;;;;;1.63;0.80;;;14.20;99.90;;;;;;5100071;27;20071;-70
2022/06/12 06:02:30;;;;;;;3.95;0.70;;;14.30;99.90;;;;;;5100536;27;20126;-70
2022/06/12 06:04:56;;;;;;;1.75;0.65;;;14.30;99.90;;;;;;5085805;28;20131;-66
2022/06/12 06:07:22;;;;;;;2.22;0.93;;;14.30;99.90;;;;;;5099665;27;20036;-73
2022/06/12 06:09:47;;;;;;;1.38;0.63;;;14.40;99.90;;;;;;5100509;27;20040;-72
2022/06/12 06:12:13;;;;;;;3.30;0.82;;;14.50;99.90;;;;;;5097627;27;20068;-73
2022/06/12 06:14:38;;;;;;;3.10;0.70;;;14.60;99.90;;;;;;5098759;27;20069;-72
2022/06/12 06:17:04;;;;;;;1.98;0.65;;;14.60;99.90;;;;;;5098251;28;20096;-70
2022/06/12 06:19:31;;;;;;;1.50;0.63;;;14.70;99.90;;;;;;5114346;27;20398;-70
2022/06/12 06:21:57;;;;;;;2.47;0.55;;;14.70;99.90;;;;;;5100147;27;20027;-71
2022/06/12 06:24:23;;;;;;;2.22;1.00;;;14.80;99.90;;;;;;5097458;27;20496;-70
2022/06/12 06:26:48;;;;;;;3.17;1.00;;;14.90;99.90;;;;;;5097618;27;20031;-70
2022/06/12 06:29:14;;;;;;;2.97;1.00;;;15.00;99.90;;;;;;5117137;27;20082;-71
2022/06/12 06:31:40;;;;;;;3.03;1.00;;;15.20;99.90;;;;;;5097054;28;20039;-70
2022/06/12 06:34:06;;;;;;;1.98;0.77;;;15.90;99.90;;;;;;5099799;28;20911;-71
2022/06/12 06:36:32;;;;;;;1.98;0.73;;;17.00;99.90;;;;;;5094716;28;20035;-71
2022/06/12 06:38:58;;;;;;;8.25;0.90;;;18.00;99.90;;;;;;5097091;28;20035;-71
2022/06/12 06:41:24;;;;;;;3.30;0.80;;;19.00;99.90;;;;;;5100769;27;20043;-71
2022/06/12 06:46:35;;;;;;;1.75;0.75;;;20.40;98.90;;;;;;5091709;28;20059;-70
2022/06/12 06:49:02;;;;;;;3.53;0.88;;;20.80;98.10;;;;;;5094636;27;20158;-71
2022/06/12 06:51:27;;;;;;;3.85;0.80;;;20.90;97.80;;;;;;5083452;28;21740;-71
2022/06/12 06:53:53;;;;;;;4.03;0.95;;;20.50;99.30;;;;;;5098683;27;20035;-71
2022/06/12 06:56:20;;;;;;;2.35;0.90;;;20.00;99.90;;;;;;5094215;28;20067;-71
2022/06/12 06:58:47;;;;;;;2.47;0.90;;;19.50;99.90;;;;;;5100135;27;20050;-70
2022/06/12 07:01:12;;;;;;;7.80;1.25;;;19.00;99.90;;;;;;5096628;27;20162;-71
2022/06/12 07:03:38;;;;;;;3.88;1.38;;;18.70;99.90;;;;;;5095440;28;20119;-70
2022/06/12 07:06:04;;;;;;;2.67;0.85;;;18.40;99.90;;;;;;5091420;28;20035;-71
2022/06/12 07:08:30;;;;;;;4.75;0.98;;;18.20;99.90;;;;;;5112220;28;20401;-71
2022/06/12 07:10:56;;;;;;;1.77;0.88;;;18.00;99.90;;;;;;5098272;27;20506;-72
2022/06/12 07:13:23;;;;;;;6.22;0.82;;;17.80;99.90;;;;;;5095675;27;20039;-71
2022/06/12 07:15:49;;;;;;;1.40;0.73;;;17.70;99.90;;;;;;5101667;27;20051;-70
2022/06/12 07:18:17;;;;;;;6.18;0.82;;;17.60;99.90;;;;;;5114832;27;20054;-71
2022/06/12 07:20:52;;;;;;;4.28;1.00;;;17.50;99.90;;;;;;5105188;27;20066;-71
2022/06/12 07:23:20;;;;;;;2.38;1.10;;;17.50;99.90;;;;;;5115455;27;20031;-71
2022/06/12 07:25:50;;;;;;;3.20;1.00;;;17.40;99.90;;;;;;5101334;27;20088;-71
2022/06/12 07:28:15;;;;;;;3.10;1.02;;;17.40;99.90;;;;;;5105591;27;20046;-71
2022/06/12 07:30:41;;;;;;;6.53;1.33;;;17.40;99.90;;;;;;5113732;27;20032;-71
2022/06/12 07:33:07;;;;;;;3.72;1.10;;;17.40;99.90;;;;;;5105608;27;20054;-71
2022/06/12 07:35:35;;;;;;;1.95;0.88;;;17.30;99.90;;;;;;5089806;27;20507;-70
2022/06/12 07:38:01;;;;;;;3.25;0.93;;;17.30;99.90;;;;;;5113450;27;20402;-70
2022/06/12 07:40:32;;;;;;;4.28;1.08;;;17.40;99.90;;;;;;5092947;27;20044;-70
2022/06/12 07:42:58;;;;;;;3.47;0.77;;;17.40;99.90;;;;;;5104494;27;20047;-70
2022/06/12 07:45:24;;;;;;;0.88;0.63;;;17.40;99.90;;;;;;5101662;27;20059;-71
2022/06/12 07:47:49;;;;;;;2.08;0.80;;;17.40;99.90;;;;;;5104340;28;20610;-71
2022/06/12 07:50:15;;;;;;;2.65;0.80;;;17.40;99.90;;;;;;5114687;27;20048;-71
2022/06/12 07:52:41;;;;;;;6.40;1.08;;;17.50;99.90;;;;;;5100459;28;20035;-71
2022/06/12 07:55:09;;;;;;;15.43;1.42;;;17.40;99.90;;;;;;5082634;28;20035;-71
2022/06/12 07:57:36;;;;;;;6.88;1.00;;;17.50;99.90;;;;;;5117344;27;20035;-71
2022/06/12 08:00:04;;;;;;;3.05;0.93;;;17.50;99.90;;;;;;5096833;27;20453;-71
2022/06/12 08:02:31;;;;;;;4.35;1.10;;;17.60;99.90;;;;;;5100636;27;20493;-71
2022/06/12 08:04:56;;;;;;;4.05;1.00;;;17.70;99.90;;;;;;5101556;27;20032;-71
2022/06/12 08:07:22;;;;;;;2.20;0.90;;;17.80;99.90;;;;;;5100215;27;20062;-71
2022/06/12 08:09:48;;;;;;;1.92;0.90;;;17.90;99.90;;;;;;5099572;27;20513;-70
2022/06/12 08:12:13;;;;;;;4.20;0.88;;;17.90;99.90;;;;;;5098550;27;20084;-71
2022/06/12 08:14:39;;;;;;;5.75;0.88;;;17.90;99.90;;;;;;5094437;28;20036;-71
2022/06/12 08:17:05;;;;;;;2.38;1.05;;;18.00;99.90;;;;;;5118673;27;20043;-71
2022/06/12 08:22:16;;;;;;;5.00;1.00;;;18.10;99.90;;;;;;5100276;27;20673;-71
2022/06/12 08:24:42;;;;;;;1.63;0.68;;;18.20;99.90;;;;;;5100054;27;20068;-71
2022/06/12 08:27:08;;;;;;;4.50;1.20;;;18.20;99.90;;;;;;5095335;27;20031;-71
2022/06/12 08:29:35;;;;;;;2.85;1.10;;;18.20;99.90;;;;;;5089786;28;20129;-70
2022/06/12 08:32:05;;;;;;;4.28;0.90;;;18.20;99.90;;;;;;5114838;27;20068;-71
2022/06/12 08:34:33;;;;;;;5.25;0.90;;;18.30;99.90;;;;;;5081422;27;20126;-70
2022/06/12 08:37:03;;;;;;;1.23;0.68;;;18.30;99.90;;;;;;5094530;27;20490;-71
2022/06/12 08:39:29;;;;;;;2.08;0.60;;;18.40;99.90;;;;;;5099247;27;20043;-71
2022/06/12 08:42:07;;;;;;;4.13;1.13;;;18.50;99.90;;;;;;5104244;27;20081;-71
2022/06/12 08:44:49;;;;;;;3.03;1.25;;;18.40;99.90;;;;;;5082776;28;20923;-71
2022/06/12 08:47:27;;;;;;;5.25;0.80;;;18.50;99.90;;;;;;5096314;27;20031;-71
2022/06/12 08:50:25;;;;;;;2.67;0.85;;;18.40;99.90;;;;;;5096163;27;20040;-71
2022/06/12 08:52:57;;;;;;;5.80;0.85;;;18.40;99.90;;;;;;5090351;28;20481;-70
2022/06/12 08:55:42;;;;;;;2.10;0.70;;;18.50;99.90;;;;;;5093424;27;20036;-70
2022/06/12 08:58:21;;;;;;;5.43;0.90;;;18.50;99.90;;;;;;5117032;27;20408;-71
2022/06/12 09:00:47;;;;;;;4.28;1.30;;;18.50;99.90;;;;;;5091098;28;20039;-70
2022/06/12 09:03:17;;;;;;;4.63;1.00;;;18.60;99.90;;;;;;5095159;27;20040;-71
2022/06/12 09:05:55;;;;;;;3.60;0.93;;;18.60;99.90;;;;;;5084243;27;20042;-70
2022/06/12 09:08:43;;;;;;;7.78;1.17;;;18.70;99.90;;;;;;5092734;27;20093;-70
2022/06/12 09:11:19;;;;;;;5.75;1.05;;;18.80;99.90;;;;;;5096989;27;20413;-71
2022/06/12 09:14:11;;;;;;;2.95;0.68;;;18.90;99.90;;;;;;5099326;27;20040;-70
2022/06/12 09:17:18;;;;;;;1.83;0.50;;;18.90;99.90;;;;;;5061343;28;20098;-72
2022/06/12 09:19:55;;;;;;;1.75;1.13;;;18.80;99.90;;;;;;5098748;27;20070;-70
2022/06/12 09:22:36;;;;;;;3.92;0.80;;;18.80;99.90;;;;;;5104007;27;20092;-70
2022/06/12 09:25:19;;;;;;;1.40;0.60;;;18.80;99.90;;;;;;5099971;27;20118;-70
2022/06/12 09:28:06;;;;;;;2.70;0.80;;;18.80;99.90;;;;;;5094727;28;20072;-70
2022/06/12 09:30:57;;;;;;;2.65;1.00;;;18.70;99.90;;;;;;5106247;27;20409;-71
2022/06/12 09:33:38;;;;;;;3.42;0.82;;;18.80;99.90;;;;;;5090012;27;20040;-71
2022/06/12 09:36:22;;;;;;;4.30;1.05;;;18.90;99.90;;;;;;5107708;27;20055;-71
2022/06/12 09:39:03;;;;;;;2.60;0.75;;;19.20;99.90;;;;;;5086782;27;20086;-71
2022/06/12 09:41:53;;;;;;;1.33;0.65;;;19.30;99.90;;;;;;5081432;27;21356;-71
2022/06/12 09:44:27;;;;;;;1.63;0.80;;;19.50;99.90;;;;;;5099598;27;20389;-71
2022/06/12 09:47:10;;;;;;;2.28;0.82;;;19.60;99.90;;;;;;5109434;27;20504;-71
2022/06/12 09:50:03;;;;;;;2.95;0.85;;;19.70;99.90;;;;;;5086276;28;20410;-71
2022/06/12 09:52:49;;;;;;;3.88;0.80;;;19.70;99.90;;;;;;5100181;27;20116;-71
2022/06/12 09:55:46;;;;;;;3.65;0.52;;;19.70;99.90;;;;;;5104522;27;20210;-71
2022/06/12 09:58:15;;;;;;;1.58;0.80;;;19.80;99.90;;;;;;5096301;27;20073;-71
2022/06/12 10:00:56;;;;;;;2.40;0.50;;;19.90;99.90;;;;;;5104084;27;20035;-71
2022/06/12 10:03:39;;;;;;;1.92;0.85;;;19.90;99.90;;;;;;5108217;27;20616;-71
2022/06/12 10:06:25;;;;;;;2.90;0.80;;;19.70;98.80;;;;;;5087684;27;20023;-71
2022/06/12 10:09:11;;;;;;;4.10;0.80;;;19.60;99.70;;;;;;5099749;27;20411;-71
2022/06/12 10:12:05;;;;;;;1.15;0.55;;;19.60;97.00;;;;;;5104235;27;20047;-71
2022/06/12 10:14:59;;;;;;;0.75;0.40;;;19.70;94.90;;;;;;5087047;27;20304;-72
2022/06/12 10:17:41;;;;;;;1.23;0.32;;;19.70;93.80;;;;;;5093627;27;20090;-71
2022/06/12 10:20:14;;;;;;;1.40;0.65;;;19.80;96.70;;;;;;5069692;27;20047;-71
2022/06/12 10:22:47;;;;;;;3.40;0.80;;;19.90;94.60;;;;;;5083937;27;20093;-71
2022/06/12 10:25:36;;;;;;;1.00;0.38;;;20.00;95.20;;;;;;5094744;27;20043;-72
2022/06/12 10:28:03;;;;;;;1.80;0.68;;;20.00;92.40;;;;;;5097879;27;20036;-71
2022/06/12 10:30:43;;;;;;;1.60;0.60;;;20.10;96.10;;;;;;5087289;27;20524;-71
2022/06/12 10:33:18;;;;;;;1.85;0.57;;;20.20;96.20;;;;;;5099828;27;20043;-71
2022/06/12 10:36:05;;;;;;;2.08;0.80;;;20.20;93.80;;;;;;5080325;27;20073;-72
2022/06/12 10:38:34;;;;;;;1.77;0.80;;;20.10;92.90;;;;;;5098100;27;20462;-72
2022/06/12 10:41:06;;;;;;;0.77;0.35;;;20.00;95.70;;;;;;5101189;27;20437;-73
2022/06/12 10:43:35;;;;;;;1.85;0.60;;;19.90;94.00;;;;;;5091147;28;20047;-72
2022/06/12 10:46:05;;;;;;;0.90;0.30;;;19.80;94.70;;;;;;5102113;27;20055;-68
2022/06/12 10:48:34;;;;;;;0.90;0.47;;;19.70;95.00;;;;;;5103308;27;20110;-72
2022/06/12 10:51:25;;;;;;;1.08;0.50;;;19.60;95.10;;;;;;5098214;27;20036;-72
2022/06/12 10:54:05;;;;;;;2.13;0.60;;;19.70;90.00;;;;;;5102947;27;20523;-73
2022/06/12 10:56:45;;;;;;;0.55;0.30;;;19.70;92.30;;;;;;5106053;27;20124;-72
2022/06/12 10:59:26;;;;;;;2.10;0.40;;;19.80;91.40;;;;;;5085068;28;20568;-72
2022/06/12 11:02:14;;;;;;;2.42;0.55;;;19.80;91.50;;;;;;5092253;28;20048;-72
2022/06/12 11:04:51;;;;;;;1.45;0.50;;;19.90;90.20;;;;;;5093104;28;20152;-71
2022/06/12 11:07:36;;;;;;;3.97;0.65;;;19.90;91.00;;;;;;5090268;28;20035;-72
2022/06/12 11:10:20;;;;;;;0.73;0.40;;;19.80;91.10;;;;;;5106056;27;20036;-72
2022/06/12 11:13:04;;;;;;;0.80;0.28;;;19.80;91.80;;;;;;5084565;28;20047;-72
2022/06/12 11:16:00;;;;;;;1.48;0.50;;;19.80;82.80;;;;;;5097409;28;20070;-73
2022/06/12 11:18:31;;;;;;;;;;;19.80;86.20;;;;;;5070012;28;20066;-72
2022/06/12 11:21:20;;;;;;;0.50;0.30;;;19.70;80.80;;;;;;5093561;28;20392;-72
2022/06/12 11:24:02;;;;;;;2.78;0.32;;;19.60;83.60;;;;;;5091465;28;20044;-72
2022/06/12 11:27:02;;;;;;;1.60;0.43;;;19.50;90.60;;;;;;5096100;28;20666;-71
2022/06/12 11:30:03;;;;;;;1.90;0.40;;;19.60;73.70;;;;;;5092039;28;20291;-72
2022/06/12 11:32:54;;;;;;;1.38;0.40;;;19.60;70.20;;;;;;5104309;27;20055;-72
2022/06/12 11:35:37;;;;;;;0.90;0.52;;;19.60;82.50;;;;;;5092779;27;20077;-71
2022/06/12 11:38:26;;;;;;;1.45;0.52;;;19.60;73.80;;;;;;5078295;28;20126;-72
2022/06/12 11:40:58;;;;;;;1.75;0.50;;;19.50;88.10;;;;;;5090958;28;20039;-71
2022/06/12 11:43:38;;;;;;;1.02;0.38;;;19.50;85.30;;;;;;5078593;28;20146;-72
2022/06/12 11:46:32;;;;;;;2.72;0.50;;;19.50;82.50;;;;;;5102517;28;20032;-71
2022/06/12 11:49:22;;;;;;;0.50;0.20;;;19.50;79.90;;;;;;5103693;28;20408;-72
2022/06/12 11:52:01;;;;;;;1.27;0.60;;;19.50;85.10;;;;;;5085307;28;20043;-72
2022/06/12 11:54:53;;;;;;;1.05;0.38;;;19.50;82.60;;;;;;5099662;28;20043;-72
2022/06/12 11:57:27;;;;;;;2.58;0.57;;;19.60;83.50;;;;;;5104120;28;20126;-72
2022/06/12 12:00:00;;;;;;;1.40;0.52;;;19.70;85.90;;;;;;5084778;27;20040;-72
2022/06/12 12:02:44;;;;;;;2.20;0.52;;;19.80;86.60;;;;;;5083873;27;20135;-72
2022/06/12 12:05:30;;;;;;;0.98;0.43;;;19.80;79.60;;;;;;5095500;27;20122;-72
2022/06/12 12:08:06;;;;;;;1.67;0.75;;;19.90;82.30;;;;;;5107293;27;20046;-72
2022/06/12 12:11:01;;;;;;;1.33;0.32;;;19.90;86.60;;;;;;5091729;27;20039;-72
2022/06/12 12:13:41;;;;;;;1.88;0.57;;;19.80;83.10;;;;;;5107255;27;20409;-72
2022/06/12 12:16:15;;;;;;;1.50;0.60;;;19.80;84.40;;;;;;5095629;27;20536;-72
2022/06/12 12:18:46;;;;;;;1.52;0.60;;;19.70;85.40;;;;;;5095522;27;20060;-72
2022/06/12 12:21:20;;;;;;;0.90;0.40;;;19.60;85.50;;;;;;5088087;27;20039;-72
2022/06/12 12:23:48;;;;;;;5.65;0.68;;;19.50;84.50;;;;;;5092126;27;20541;-72
2022/06/12 12:26:23;;;;;;;1.48;0.57;;;19.30;85.60;;;;;;5091193;27;20073;-71
2022/06/12 12:28:51;;;;;;;;;;;19.30;82.20;;;;;;5080749;28;20442;-71
2022/06/12 12:31:18;;;;;;;1.55;0.43;;;19.30;79.20;;;;;;5082039;28;19924;-72
2022/06/12 12:33:47;;;;;;;1.83;0.65;;;19.40;86.30;;;;;;5078484;28;20039;-71
2022/06/12 12:41:50;;;;;;;5.70;1.27;;;19.60;85.50;;;;;;5098294;27;20134;-72
2022/06/12 12:44:31;;;;;;;4.68;0.63;;;19.60;85.40;;;;;;5073854;27;20035;-71
2022/06/12 12:46:57;;;;;;;1.42;0.50;;;19.60;83.80;;;;;;5090558;27;20047;-72
2022/06/12 12:49:35;;;;;;;0.68;0.40;;;19.60;85.80;;;;;;5111014;27;20036;-72
2022/06/12 12:52:16;;;;;;;3.08;0.50;;;19.60;83.00;;;;;;5091907;27;20134;-72
2022/06/12 12:54:51;;;;;;;1.23;0.55;;;19.60;85.80;;;;;;5089914;27;20047;-72
2022/06/12 12:57:31;;;;;;;1.85;0.63;;;19.70;86.80;;;;;;5098711;27;20038;-72
2022/06/12 12:59:57;;;;;;;1.15;0.50;;;19.90;85.60;;;;;;5100639;27;20105;-72
2022/06/12 13:02:30;;;;;;;2.35;0.60;;;20.00;86.60;;;;;;5102997;27;20039;-71
2022/06/12 13:05:13;;;;;;;2.40;0.80;;;20.00;84.00;;;;;;5100600;27;20040;-72
2022/06/12 13:08:07;;;;;;;2.35;0.70;;;19.90;83.40;;;;;;5107578;27;20473;-74
2022/06/12 13:10:51;;;;;;;1.52;0.73;;;19.80;82.60;;;;;;5075021;27;20076;-72
2022/06/12 13:13:29;;;;;;;2.28;0.70;;;19.60;81.20;;;;;;5095405;27;20046;-71
2022/06/12 13:16:01;;;;;;;0.77;0.40;;;19.50;87.10;;;;;;5101426;27;20449;-72
2022/06/12 13:18:58;;;;;;;1.48;0.80;;;19.50;86.50;;;;;;5103158;27;20067;-72
2022/06/12 13:21:41;;;;;;;6.22;0.57;;;19.50;82.80;;;;;;5106845;27;20046;-72
2022/06/12 13:24:28;;;;;;;2.83;0.70;;;19.40;86.80;;;;;;5082624;28;20036;-72
2022/06/12 13:26:55;;;;;;;4.13;0.95;;;19.40;88.90;;;;;;5095712;27;20063;-72
2022/06/12 13:29:23;;;;;;;3.35;0.50;;;19.50;89.70;;;;;;5090873;27;20773;-72
2022/06/12 13:32:01;;;;;;;3.17;0.80;;;19.50;88.40;;;;;;5090291;28;20039;-72
2022/06/12 13:34:29;;;;;;;1.17;0.50;;;19.60;86.40;;;;;;5094188;27;20239;-72
2022/06/12 13:36:56;;;;;;;1.33;0.63;;;19.60;86.50;;;;;;5098659;27;20046;-72
2022/06/12 13:39:32;;;;;;;1.70;0.60;;;19.50;85.60;;;;;;5093505;27;20035;-72
2022/06/12 13:42:03;;;;;;;2.85;0.60;;;19.50;81.90;;;;;;5083470;28;20076;-72